Airfield :
LOGIN :

Register | Disclaimer

   EN    FR    IT 

 










Legend :    VFR   Marginal VFR   IFR   Intensive IFR   Very Intensive IFR
Visi :
Ceiling :
>= 8 km
>= 3000ft
5 to 8 km
1000 to 3000 ft
1500m to 5 km
500 to 1000 ft
800 to 1500m
200 to 500 ft
< 800m
< 200 ft
Symbols :   Thunderstorms  Fog  Heavy snow  Heavy precipitations  Wind > 20 kt
SIGMETs :     Misc.  Thunderstorms  Icing  Turbulence  Mountain Waves  Volcanic Ashes







- Airport Elevation : 699 ft
- IATA code : PAD


EDLP - Paderborn Lippstadt

CURRENT METAR :
  • 190650Z 16006KT CAVOK 09/08 Q1013

EXPIRED METARs :
  • 190620Z VRB02KT CAVOK 09/08 Q1013
  • 190550Z 17007KT CAVOK 09/07 Q1013
  • 190520Z 17007KT CAVOK 09/08 Q1013
  • 190450Z 17007KT CAVOK 09/08 Q1013
  • 190420Z 17009KT CAVOK 09/07 Q1013

TAF TAF EDLP
Valid from the 19 at 06:00 until the 20 at 06:00 UTC


190500Z 1906/2006 16009KT CAVOK
No reported NOTAMs for that airfield.



MET'MAP, your aeronautical weather chart ! - Copyright ORBIFLY December 2007 - Disclaimer

ORBIFLY MET'MAP TEAM :

Programming & Development : Alexandra Zaïnal
Concept & Development : Baudouin d'Aumeries
Co-Development & Prog : Marc-Olivier Méhu
Technical & hardware support : Manuel Goepfert

Contact : metmap@orbifly.com




SOURCES & CREDITS :

   NOAA